Time;durP1;ratioP1;P1;durP2;ratioP2;P2;SDS_P1;SDS_P2;PMS_P1;PMS_P2;Temp;Humidity;BMP_temperature;BMP_pressure;BME280_temperature;BME280_humidity;BME280_pressure;Samples;Min_cycle;Max_cycle;Signal;HPM_P1;HPM_P2
2023/02/17 00:00:54;;;;;;;20.67;12.80;;;9.50;99.90;;;;;;5072311;28;20097;-75
2023/02/17 00:03:19;;;;;;;25.40;13.68;;;9.50;99.90;;;;;;5070596;28;20045;-75
2023/02/17 00:05:45;;;;;;;23.85;13.60;;;9.40;99.90;;;;;;5072414;28;20037;-76
2023/02/17 00:08:10;;;;;;;25.67;14.45;;;9.40;99.90;;;;;;5072285;28;20040;-75
2023/02/17 00:10:36;;;;;;;22.83;13.10;;;9.50;99.90;;;;;;5072437;28;20496;-76
2023/02/17 00:13:02;;;;;;;28.50;14.82;;;9.50;99.90;;;;;;5071890;28;20380;-76
2023/02/17 00:15:27;;;;;;;27.90;14.38;;;9.40;99.90;;;;;;5071903;28;20040;-75
2023/02/17 00:17:53;;;;;;;27.15;15.18;;;9.50;99.90;;;;;;5070526;28;20044;-75
2023/02/17 00:20:18;;;;;;;25.50;14.90;;;9.50;99.90;;;;;;5070993;28;20684;-75
2023/02/17 00:22:44;;;;;;;26.10;15.77;;;9.50;99.90;;;;;;5070448;28;20090;-76
2023/02/17 00:25:10;;;;;;;31.48;16.02;;;9.50;99.90;;;;;;5071241;28;20072;-76
2023/02/17 00:27:35;;;;;;;35.38;18.38;;;9.40;99.90;;;;;;5053980;28;20043;-75
2023/02/17 00:30:01;;;;;;;36.55;18.92;;;9.40;99.90;;;;;;5070710;28;20073;-76
2023/02/17 00:32:26;;;;;;;41.42;20.58;;;9.40;99.90;;;;;;5071409;28;20074;-76
2023/02/17 00:34:55;;;;;;;42.85;21.13;;;9.50;99.90;;;;;;5070450;28;20139;-76
2023/02/17 00:37:20;;;;;;;39.35;21.05;;;9.50;99.90;;;;;;5070776;28;20146;-75
2023/02/17 00:39:46;;;;;;;46.15;23.23;;;9.40;99.90;;;;;;5070485;28;20116;-76
2023/02/17 00:42:11;;;;;;;42.20;21.75;;;9.50;99.90;;;;;;5070131;28;20047;-76
2023/02/17 00:44:37;;;;;;;43.25;22.67;;;9.40;99.90;;;;;;5069947;28;20415;-75
2023/02/17 00:47:02;;;;;;;49.55;23.58;;;9.50;99.90;;;;;;5071501;28;20050;-76
2023/02/17 00:49:28;;;;;;;46.10;24.55;;;9.40;99.90;;;;;;5070329;28;20040;-77
2023/02/17 00:51:53;;;;;;;53.92;24.65;;;9.40;99.90;;;;;;5070353;28;20091;-76
2023/02/17 00:54:19;;;;;;;55.30;25.95;;;9.50;99.90;;;;;;5070786;28;20068;-75
2023/02/17 00:56:45;;;;;;;54.40;27.33;;;9.40;99.90;;;;;;5069495;28;20051;-76
2023/02/17 00:59:12;;;;;;;59.28;27.60;;;9.50;99.90;;;;;;5070477;28;20032;-75
2023/02/17 01:01:38;;;;;;;56.15;28.20;;;9.50;99.90;;;;;;5070900;28;20033;-76
2023/02/17 01:04:04;;;;;;;57.47;29.48;;;9.40;99.90;;;;;;5069738;28;20028;-75
2023/02/17 01:06:32;;;;;;;59.53;28.77;;;9.40;99.90;;;;;;5068802;28;20121;-76
2023/02/17 01:08:58;;;;;;;58.38;31.27;;;9.50;99.90;;;;;;5069594;28;20043;-76
2023/02/17 01:11:28;;;;;;;65.15;29.35;;;9.40;99.90;;;;;;5069398;28;20507;-75
2023/02/17 01:13:54;;;;;;;55.70;28.67;;;9.50;99.90;;;;;;5069610;28;20076;-75
2023/02/17 01:16:23;;;;;;;60.70;29.88;;;9.50;99.90;;;;;;5068601;28;20036;-76
2023/02/17 01:18:49;;;;;;;65.70;31.48;;;9.50;99.90;;;;;;5068565;28;20076;-76
2023/02/17 01:21:25;;;;;;;67.13;31.90;;;9.50;99.90;;;;;;5068742;28;20531;-75
2023/02/17 01:23:53;;;;;;;73.63;33.10;;;9.50;99.90;;;;;;5068829;28;20040;-76
2023/02/17 01:26:22;;;;;;;68.05;32.33;;;9.50;99.90;;;;;;5071013;28;20037;-75
2023/02/17 01:28:49;;;;;;;76.78;33.53;;;9.50;99.90;;;;;;5071228;28;20075;-75
2023/02/17 01:31:15;;;;;;;73.43;34.30;;;9.50;99.90;;;;;;5075557;28;20136;-76
2023/02/17 01:33:41;;;;;;;80.18;35.83;;;9.50;99.90;;;;;;5073416;28;20032;-76
2023/02/17 01:36:10;;;;;;;76.65;35.67;;;9.50;99.90;;;;;;5074072;28;20519;-76
2023/02/17 01:38:37;;;;;;;79.10;36.72;;;9.50;99.90;;;;;;5073811;28;20055;-75
2023/02/17 01:41:04;;;;;;;77.03;37.17;;;9.50;99.90;;;;;;5073717;28;20037;-75
2023/02/17 01:43:30;;;;;;;79.55;38.15;;;9.50;99.90;;;;;;5072648;28;20051;-76
2023/02/17 01:45:58;;;;;;;73.85;37.05;;;9.50;99.90;;;;;;5073983;28;20028;-75
2023/02/17 01:48:42;;;;;;;72.30;36.38;;;9.60;99.90;;;;;;5072536;28;20115;-75
2023/02/17 01:51:15;;;;;;;87.07;38.00;;;9.50;99.90;;;;;;5074965;28;20048;-75
2023/02/17 01:53:47;;;;;;;83.38;37.70;;;9.50;99.90;;;;;;5073087;28;20060;-75
2023/02/17 01:56:15;;;;;;;83.80;38.63;;;9.60;99.90;;;;;;5075012;28;20070;-76
2023/02/17 01:58:44;;;;;;;81.60;38.72;;;9.50;99.90;;;;;;5072279;28;20523;-75
2023/02/17 02:01:10;;;;;;;77.20;37.08;;;9.60;99.90;;;;;;5073156;28;20040;-75
2023/02/17 02:03:37;;;;;;;86.63;40.10;;;9.60;99.90;;;;;;5074321;28;20560;-76
2023/02/17 02:06:09;;;;;;;75.50;37.83;;;9.50;99.90;;;;;;5073604;28;20049;-75
2023/02/17 02:08:46;;;;;;;82.00;38.65;;;9.60;99.90;;;;;;5074778;28;20403;-75
2023/02/17 02:11:12;;;;;;;79.75;37.70;;;9.70;99.90;;;;;;5074702;28;20127;-75
2023/02/17 02:13:37;;;;;;;77.57;37.92;;;9.50;99.90;;;;;;5072650;28;20120;-75
2023/02/17 02:16:23;;;;;;;77.63;36.95;;;9.60;99.90;;;;;;5073200;28;20455;-75
2023/02/17 02:19:07;;;;;;;80.47;37.30;;;9.60;99.90;;;;;;5073133;28;20415;-75
2023/02/17 02:21:39;;;;;;;79.90;37.03;;;9.60;99.90;;;;;;5073277;28;20040;-75
2023/02/17 02:24:42;;;;;;;76.40;36.67;;;9.50;99.90;;;;;;5071865;28;20044;-75
2023/02/17 02:27:40;;;;;;;82.20;38.78;;;9.60;99.90;;;;;;5074038;28;20116;-76
2023/02/17 02:30:37;;;;;;;80.10;38.40;;;9.60;99.90;;;;;;5074539;28;20044;-75
2023/02/17 02:33:12;;;;;;;81.50;38.40;;;9.50;99.90;;;;;;5072753;28;20044;-75
2023/02/17 02:35:55;;;;;;;81.88;38.95;;;9.60;99.90;;;;;;5074219;28;20047;-76
2023/02/17 02:38:26;;;;;;;73.05;35.05;;;9.60;99.90;;;;;;5072617;28;20051;-75
2023/02/17 02:41:00;;;;;;;76.85;37.13;;;9.60;99.90;;;;;;5072692;28;20170;-76
2023/02/17 02:43:26;;;;;;;76.95;38.67;;;9.60;99.90;;;;;;5072210;28;20040;-76
2023/02/17 02:45:51;;;;;;;79.45;37.97;;;9.60;99.90;;;;;;5072743;28;20125;-75
2023/02/17 02:48:17;;;;;;;80.05;37.90;;;9.60;99.90;;;;;;5072463;28;20044;-75
2023/02/17 02:51:01;;;;;;;81.10;39.40;;;9.70;99.90;;;;;;5072493;28;20045;-76
2023/02/17 02:53:51;;;;;;;80.05;38.20;;;9.70;99.90;;;;;;5072022;28;20037;-76
2023/02/17 02:56:33;;;;;;;80.65;38.08;;;9.60;99.90;;;;;;5073562;28;20444;-75
2023/02/17 02:59:20;;;;;;;73.30;37.42;;;9.70;99.90;;;;;;5073696;28;20067;-76
2023/02/17 03:02:12;;;;;;;76.82;38.65;;;9.60;99.90;;;;;;5073629;28;20052;-75
2023/02/17 03:04:48;;;;;;;84.00;38.30;;;9.60;99.90;;;;;;5072209;28;20036;-75
2023/02/17 03:07:20;;;;;;;75.63;38.35;;;9.60;99.90;;;;;;5072230;28;20036;-76
2023/02/17 03:09:48;;;;;;;76.22;37.55;;;9.70;99.90;;;;;;5072210;28;20047;-75
2023/02/17 03:12:14;;;;;;;81.05;39.95;;;9.70;99.90;;;;;;5071946;28;20041;-75
2023/02/17 03:14:42;;;;;;;77.45;37.22;;;9.70;99.90;;;;;;5054251;28;20044;-76
2023/02/17 03:17:08;;;;;;;80.45;39.55;;;9.70;99.90;;;;;;5073073;28;20075;-75
2023/02/17 03:19:33;;;;;;;74.68;36.88;;;9.70;99.90;;;;;;5073421;28;20079;-75
2023/02/17 03:22:15;;;;;;;73.90;38.00;;;9.70;99.90;;;;;;5073167;28;20047;-78
2023/02/17 03:24:41;;;;;;;73.35;36.72;;;9.60;99.90;;;;;;5072937;28;20033;-75
2023/02/17 03:27:07;;;;;;;73.15;38.42;;;9.60;99.90;;;;;;5072993;28;20553;-76
2023/02/17 03:29:32;;;;;;;79.50;39.60;;;9.60;99.90;;;;;;5071664;28;20040;-75
2023/02/17 03:31:58;;;;;;;81.45;39.70;;;9.70;99.90;;;;;;5073160;28;20040;-75
2023/02/17 03:34:23;;;;;;;74.30;37.65;;;9.60;99.90;;;;;;5072708;28;20033;-76
2023/02/17 03:36:49;;;;;;;75.22;35.85;;;9.60;99.90;;;;;;5072820;28;20041;-76
2023/02/17 03:39:15;;;;;;;70.53;36.53;;;9.60;99.90;;;;;;5072769;28;20040;-76
2023/02/17 03:41:41;;;;;;;71.80;34.20;;;9.50;99.90;;;;;;5054992;28;20054;-75
2023/02/17 03:44:06;;;;;;;68.57;35.17;;;9.50;99.90;;;;;;5072397;28;20115;-75
2023/02/17 03:46:32;;;;;;;65.88;32.38;;;9.60;99.90;;;;;;5072889;28;20501;-75
2023/02/17 03:48:57;;;;;;;69.20;32.90;;;9.50;99.90;;;;;;5071420;28;20048;-75
2023/02/17 03:51:24;;;;;;;67.72;33.72;;;9.50;99.90;;;;;;5071317;28;20465;-75
2023/02/17 03:53:50;;;;;;;65.65;32.35;;;9.60;99.90;;;;;;5070289;28;20052;-75
2023/02/17 03:56:17;;;;;;;59.88;31.75;;;9.60;99.90;;;;;;5071597;28;20491;-75
2023/02/17 03:58:42;;;;;;;72.00;33.15;;;9.60;99.90;;;;;;5071177;28;20043;-75
2023/02/17 04:01:10;;;;;;;62.72;32.78;;;9.50;99.90;;;;;;5071119;28;20037;-75
2023/02/17 04:03:36;;;;;;;70.65;32.15;;;9.50;99.90;;;;;;5071343;28;20086;-76
2023/02/17 04:06:02;;;;;;;68.35;31.52;;;9.50;99.90;;;;;;5072141;28;20488;-75
2023/02/17 04:08:28;;;;;;;64.50;32.15;;;9.60;99.90;;;;;;5071018;28;20151;-76
2023/02/17 04:10:55;;;;;;;64.53;30.63;;;9.60;99.90;;;;;;5071114;28;20076;-75
2023/02/17 04:13:22;;;;;;;58.30;29.88;;;9.50;99.90;;;;;;5071624;28;20515;-76
2023/02/17 04:15:47;;;;;;;58.50;29.38;;;9.50;99.90;;;;;;5072301;28;20117;-76
2023/02/17 04:18:13;;;;;;;60.30;32.03;;;9.50;99.90;;;;;;5072018;28;20487;-76
2023/02/17 04:20:39;;;;;;;65.05;30.95;;;9.50;99.90;;;;;;5072167;28;20036;-77
2023/02/17 04:23:05;;;;;;;61.38;29.25;;;9.50;99.90;;;;;;5070411;28;20044;-75
2023/02/17 04:25:33;;;;;;;58.47;30.00;;;9.60;99.90;;;;;;5070397;28;20098;-75
2023/02/17 04:27:58;;;;;;;53.72;28.38;;;9.50;99.90;;;;;;5070477;28;20045;-75
2023/02/17 04:30:24;;;;;;;54.88;27.73;;;9.60;99.90;;;;;;5070717;28;20041;-76
2023/02/17 04:32:49;;;;;;;56.63;29.42;;;9.60;99.90;;;;;;5070202;28;20492;-76
2023/02/17 04:35:15;;;;;;;54.35;27.42;;;9.60;99.90;;;;;;5069389;28;20052;-75
2023/02/17 04:37:40;;;;;;;51.95;27.65;;;9.50;99.90;;;;;;5070273;28;20037;-75
2023/02/17 04:40:09;;;;;;;63.60;30.60;;;9.60;99.90;;;;;;5070412;28;20415;-76
2023/02/17 04:42:35;;;;;;;52.85;27.23;;;9.60;99.90;;;;;;5069938;28;20090;-75
2023/02/17 04:45:01;;;;;;;49.28;25.48;;;9.60;99.90;;;;;;5070309;28;20041;-75
2023/02/17 04:47:27;;;;;;;47.38;26.85;;;9.60;99.90;;;;;;5070360;28;20123;-75
2023/02/17 04:49:52;;;;;;;47.97;25.70;;;9.60;99.90;;;;;;5071791;28;20080;-76
2023/02/17 04:52:18;;;;;;;49.17;25.58;;;9.60;99.90;;;;;;5070178;28;20041;-76
2023/02/17 04:54:44;;;;;;;49.17;25.08;;;9.50;99.90;;;;;;5070057;28;20090;-76
2023/02/17 04:57:09;;;;;;;56.22;25.83;;;9.50;99.90;;;;;;5071363;28;20508;-75
2023/02/17 04:59:35;;;;;;;55.97;27.00;;;9.50;99.90;;;;;;5070580;28;20048;-75
2023/02/17 05:02:01;;;;;;;50.40;25.75;;;9.50;99.90;;;;;;5070162;28;20032;-75
2023/02/17 05:04:26;;;;;;;44.30;24.23;;;9.50;99.90;;;;;;5071354;28;20037;-76
2023/02/17 05:06:52;;;;;;;50.67;24.10;;;9.50;99.90;;;;;;5069922;28;20039;-76
2023/02/17 05:09:18;;;;;;;51.45;24.35;;;9.50;99.90;;;;;;5068816;28;20041;-76
2023/02/17 05:11:44;;;;;;;43.30;24.08;;;9.50;99.90;;;;;;5068654;28;20036;-76
2023/02/17 05:14:09;;;;;;;54.65;25.15;;;9.50;99.90;;;;;;5069704;28;20047;-76
2023/02/17 05:16:35;;;;;;;53.63;26.02;;;9.40;99.90;;;;;;5069862;28;20040;-75
2023/02/17 05:19:00;;;;;;;51.15;25.58;;;9.40;99.90;;;;;;5070731;28;20124;-76
2023/02/17 05:21:26;;;;;;;51.63;26.58;;;9.50;99.90;;;;;;5107015;22;20177;-76
2023/02/17 05:23:52;;;;;;;53.13;25.65;;;9.50;99.90;;;;;;5109198;28;20032;-76
2023/02/17 05:26:17;;;;;;;49.70;24.73;;;9.50;99.90;;;;;;5110270;28;20040;-76
2023/02/17 05:28:43;;;;;;;48.90;23.58;;;9.40;99.90;;;;;;5110255;28;20036;-76
2023/02/17 05:31:09;;;;;;;47.85;24.67;;;9.50;99.90;;;;;;5109854;28;20043;-77
2023/02/17 05:33:35;;;;;;;57.40;23.13;;;9.50;99.90;;;;;;5109967;28;20044;-76
2023/02/17 05:36:05;;;;;;;48.70;23.80;;;9.40;99.90;;;;;;5109773;28;20039;-76
2023/02/17 05:38:31;;;;;;;42.42;22.58;;;9.40;99.90;;;;;;5110234;28;20040;-76
2023/02/17 05:40:57;;;;;;;45.95;21.27;;;9.50;99.90;;;;;;5109653;28;20057;-76
2023/02/17 05:43:23;;;;;;;45.72;23.48;;;9.40;99.90;;;;;;5109282;28;20043;-76
2023/02/17 05:45:48;;;;;;;46.85;22.60;;;9.40;99.90;;;;;;5109749;28;20040;-75
2023/02/17 05:48:14;;;;;;;44.58;22.15;;;9.40;99.90;;;;;;5110243;28;20092;-76
2023/02/17 05:50:39;;;;;;;42.92;20.67;;;9.40;99.90;;;;;;5111141;28;20036;-75
2023/02/17 05:53:05;;;;;;;47.92;22.27;;;9.30;99.90;;;;;;5109565;28;20104;-76
2023/02/17 05:55:31;;;;;;;46.40;22.05;;;9.40;99.90;;;;;;5109681;28;20092;-76
2023/02/17 05:57:56;;;;;;;46.38;21.10;;;9.30;99.90;;;;;;5109520;28;20192;-76
2023/02/17 06:00:22;;;;;;;41.25;20.60;;;9.40;99.90;;;;;;5109414;28;20032;-76
2023/02/17 06:02:47;;;;;;;40.78;20.33;;;9.30;99.90;;;;;;5110650;28;20534;-76
2023/02/17 06:05:13;;;;;;;44.92;21.27;;;9.40;99.90;;;;;;5111016;28;20039;-76
2023/02/17 06:07:39;;;;;;;46.65;24.05;;;9.40;99.90;;;;;;5108666;28;20165;-76
2023/02/17 06:10:05;;;;;;;51.30;24.48;;;9.40;99.90;;;;;;5109423;28;20126;-76
2023/02/17 06:12:31;;;;;;;56.78;26.27;;;9.40;99.90;;;;;;5092005;28;20044;-76
2023/02/17 06:14:56;;;;;;;61.22;26.55;;;9.40;99.90;;;;;;5092285;28;20040;-76
2023/02/17 06:17:22;;;;;;;65.00;27.40;;;9.40;99.90;;;;;;5110922;28;20043;-76
2023/02/17 06:19:47;;;;;;;69.68;32.25;;;9.40;99.90;;;;;;5110970;28;20127;-76
2023/02/17 06:22:13;;;;;;;74.20;32.03;;;9.40;99.90;;;;;;5093863;28;20356;-76
2023/02/17 06:24:38;;;;;;;73.93;31.13;;;9.50;99.90;;;;;;5111890;28;20036;-76
2023/02/17 06:27:04;;;;;;;76.05;33.90;;;9.50;99.90;;;;;;5113260;28;20101;-76
2023/02/17 06:29:30;;;;;;;79.40;33.78;;;9.50;99.90;;;;;;5112467;28;20126;-77
2023/02/17 06:31:55;;;;;;;74.28;33.08;;;9.40;99.90;;;;;;5111997;28;20452;-77
2023/02/17 06:34:21;;;;;;;79.80;33.63;;;9.50;99.90;;;;;;5112378;28;20152;-77
2023/02/17 06:36:47;;;;;;;74.03;34.08;;;9.40;99.90;;;;;;5113978;28;20040;-77
2023/02/17 06:39:12;;;;;;;80.43;34.20;;;9.40;99.90;;;;;;5095698;28;20126;-77
2023/02/17 06:41:38;;;;;;;74.35;34.10;;;9.40;99.90;;;;;;5095734;28;20062;-76
2023/02/17 06:44:03;;;;;;;73.88;33.80;;;9.50;99.90;;;;;;5113303;28;20498;-75
2023/02/17 06:46:29;;;;;;;87.30;34.47;;;9.40;99.90;;;;;;5112592;28;20097;-75
2023/02/17 06:48:54;;;;;;;86.13;36.28;;;9.50;99.90;;;;;;5112525;28;20050;-76
2023/02/17 06:51:20;;;;;;;74.15;33.97;;;9.40;99.90;;;;;;5112488;28;20511;-76
2023/02/17 06:53:45;;;;;;;81.22;35.90;;;9.50;99.90;;;;;;5113648;28;20169;-76
2023/02/17 06:56:11;;;;;;;81.15;34.05;;;9.50;99.90;;;;;;5095431;28;20043;-76
2023/02/17 06:58:36;;;;;;;80.03;35.28;;;9.60;99.90;;;;;;5094388;28;20391;-76
2023/02/17 07:01:03;;;;;;;87.47;35.67;;;9.50;99.90;;;;;;5111862;28;20042;-76
2023/02/17 07:03:30;;;;;;;78.40;33.58;;;9.50;99.90;;;;;;5094815;28;20035;-76
2023/02/17 07:05:57;;;;;;;75.25;32.13;;;9.50;99.90;;;;;;5112486;28;20051;-76
2023/02/17 07:08:22;;;;;;;86.47;33.88;;;9.60;99.90;;;;;;5112340;28;20035;-76
2023/02/17 07:10:48;;;;;;;69.22;32.35;;;9.50;99.90;;;;;;5111668;28;20042;-76
2023/02/17 07:13:13;;;;;;;78.35;34.28;;;9.50;99.90;;;;;;5111706;28;20043;-76
2023/02/17 07:15:39;;;;;;;81.03;33.88;;;9.60;99.90;;;;;;5111550;28;20036;-75
2023/02/17 07:18:04;;;;;;;82.95;33.88;;;9.60;99.90;;;;;;5111944;28;20031;-76
2023/02/17 07:20:33;;;;;;;75.25;33.13;;;9.60;99.90;;;;;;5112044;28;20036;-76
2023/02/17 07:22:59;;;;;;;87.88;33.22;;;9.60;99.90;;;;;;5111228;28;20049;-77
2023/02/17 07:25:25;;;;;;;77.28;33.28;;;9.60;99.90;;;;;;5094108;28;20084;-77
2023/02/17 07:27:51;;;;;;;77.07;30.67;;;9.60;99.90;;;;;;5111752;28;20035;-76
2023/02/17 07:30:17;;;;;;;80.20;32.78;;;9.70;99.90;;;;;;5111748;28;20100;-77
2023/02/17 07:32:42;;;;;;;80.45;32.80;;;9.60;99.90;;;;;;5112669;28;20092;-76
2023/02/17 07:35:08;;;;;;;73.50;32.80;;;9.70;99.90;;;;;;5111864;28;20070;-76
2023/02/17 07:37:34;;;;;;;78.70;31.42;;;9.70;99.90;;;;;;5094254;28;20032;-76
2023/02/17 07:40:00;;;;;;;79.85;32.13;;;9.70;99.90;;;;;;5112659;28;20035;-76
2023/02/17 07:42:29;;;;;;;80.35;33.17;;;9.70;99.90;;;;;;5093699;28;20486;-76
2023/02/17 07:44:54;;;;;;;79.80;32.80;;;9.70;99.90;;;;;;5094286;28;20040;-77
2023/02/17 07:47:20;;;;;;;79.82;33.97;;;9.70;99.90;;;;;;5111185;28;20165;-76
2023/02/17 07:49:45;;;;;;;78.20;33.08;;;9.70;99.90;;;;;;5094310;28;20135;-76
2023/02/17 07:52:11;;;;;;;80.60;32.03;;;9.70;99.90;;;;;;5111246;28;20039;-76
2023/02/17 07:54:36;;;;;;;74.32;31.75;;;9.70;99.90;;;;;;5110969;28;20592;-76
2023/02/17 07:57:02;;;;;;;79.68;32.17;;;9.70;99.90;;;;;;5111067;28;20128;-77
2023/02/17 07:59:28;;;;;;;73.25;31.13;;;9.80;99.90;;;;;;5111296;28;20036;-77
2023/02/17 08:01:53;;;;;;;71.55;31.05;;;9.80;99.90;;;;;;5110430;28;20036;-76
2023/02/17 08:04:19;;;;;;;86.70;33.90;;;9.80;99.90;;;;;;5111164;28;20181;-77
2023/02/17 08:06:44;;;;;;;70.13;30.80;;;9.90;99.90;;;;;;5101658;28;20122;-76
2023/02/17 08:14:39;;;;;;;73.88;31.60;;;9.90;99.90;;;;;;5102306;28;20047;-76
2023/02/17 08:17:06;;;;;;;83.82;33.22;;;10.00;99.90;;;;;;5100409;28;20039;-77
2023/02/17 08:19:32;;;;;;;69.50;30.08;;;10.00;99.90;;;;;;5101531;28;20422;-76
2023/02/17 08:21:57;;;;;;;69.75;29.17;;;10.00;99.90;;;;;;5084929;28;20112;-76
2023/02/17 08:24:23;;;;;;;69.25;29.08;;;10.00;99.90;;;;;;5112060;28;20486;-77
2023/02/17 08:26:49;;;;;;;65.15;28.58;;;10.00;99.90;;;;;;5110797;28;20035;-76
2023/02/17 08:29:15;;;;;;;76.18;30.63;;;10.10;99.90;;;;;;5093668;28;20408;-76
2023/02/17 08:31:41;;;;;;;70.07;29.10;;;10.00;99.90;;;;;;5110627;28;20035;-77
2023/02/17 08:34:08;;;;;;;63.38;28.70;;;10.10;99.90;;;;;;5111615;28;20100;-76
2023/02/17 08:36:36;;;;;;;69.82;29.65;;;10.10;99.90;;;;;;5110472;28;20046;-76
2023/02/17 08:39:03;;;;;;;66.57;27.83;;;10.20;99.90;;;;;;5110237;28;20040;-77
2023/02/17 08:41:32;;;;;;;69.45;28.40;;;10.30;99.90;;;;;;5110348;28;20086;-76
2023/02/17 08:44:00;;;;;;;63.83;27.48;;;10.30;99.90;;;;;;5110017;28;20127;-76
2023/02/17 08:46:26;;;;;;;59.35;25.67;;;10.20;99.90;;;;;;5110332;28;20105;-76
2023/02/17 08:48:52;;;;;;;61.95;27.77;;;10.20;99.90;;;;;;5093344;28;20051;-76
2023/02/17 08:51:22;;;;;;;62.35;25.75;;;10.20;99.90;;;;;;5111864;28;20043;-76
2023/02/17 08:53:49;;;;;;;53.15;24.40;;;10.20;99.90;;;;;;5109976;28;20088;-77
2023/02/17 08:56:14;;;;;;;57.33;24.38;;;10.20;99.90;;;;;;5110231;28;20046;-77
2023/02/17 08:58:40;;;;;;;57.08;23.92;;;10.40;99.90;;;;;;5110145;28;20044;-77
2023/02/17 09:01:06;;;;;;;51.67;24.05;;;10.40;99.90;;;;;;5105045;28;20040;-76
2023/02/17 09:03:38;;;;;;;57.55;24.83;;;10.40;99.90;;;;;;5106347;28;20035;-77
2023/02/17 09:06:05;;;;;;;48.08;22.20;;;10.30;99.90;;;;;;5100821;28;20106;-78
2023/02/17 09:08:31;;;;;;;46.20;21.20;;;10.40;99.90;;;;;;5078415;28;20040;-76
2023/02/17 09:10:57;;;;;;;42.67;20.63;;;10.50;99.90;;;;;;5090044;28;20040;-77
2023/02/17 09:13:22;;;;;;;44.55;20.17;;;10.50;99.90;;;;;;5089265;28;20071;-76
2023/02/17 09:15:48;;;;;;;39.35;19.25;;;10.50;99.90;;;;;;5098427;28;20082;-77
2023/02/17 09:18:15;;;;;;;39.97;20.52;;;10.50;99.90;;;;;;5100839;28;20044;-77
2023/02/17 09:20:41;;;;;;;35.20;19.52;;;10.60;99.90;;;;;;5091039;28;20036;-76
2023/02/17 09:23:07;;;;;;;33.08;17.95;;;10.60;99.90;;;;;;5091016;28;20046;-76
2023/02/17 09:25:32;;;;;;;40.17;19.10;;;10.60;99.90;;;;;;5091023;28;20082;-77
2023/02/17 09:27:58;;;;;;;33.83;17.95;;;10.50;99.90;;;;;;5089578;28;20040;-77
2023/02/17 09:30:23;;;;;;;34.45;17.90;;;10.50;99.90;;;;;;5089642;28;20059;-76
2023/02/17 09:32:49;;;;;;;36.65;18.30;;;10.60;99.90;;;;;;5089647;28;20035;-77
2023/02/17 09:35:17;;;;;;;37.08;18.13;;;10.70;99.90;;;;;;5090990;28;20116;-77
2023/02/17 09:37:43;;;;;;;41.08;18.50;;;10.70;99.90;;;;;;5090969;28;20040;-77
2023/02/17 09:40:19;;;;;;;34.35;16.63;;;10.70;99.90;;;;;;5089525;28;20032;-77
2023/02/17 09:42:44;;;;;;;29.75;15.85;;;10.60;99.90;;;;;;5097366;28;20027;-77
2023/02/17 09:45:20;;;;;;;31.90;16.40;;;10.70;99.90;;;;;;5100143;28;20044;-77
2023/02/17 09:47:51;;;;;;;36.38;15.52;;;10.70;99.90;;;;;;5099041;28;20508;-76
2023/02/17 09:50:42;;;;;;;26.02;13.93;;;10.60;99.90;;;;;;5090239;28;20127;-77
2023/02/17 09:53:16;;;;;;;30.40;15.43;;;10.70;99.90;;;;;;5081730;28;20406;-77
2023/02/17 09:55:48;;;;;;;32.25;15.20;;;10.80;99.90;;;;;;5103537;28;20116;-77
2023/02/17 09:58:30;;;;;;;28.17;14.85;;;10.70;99.90;;;;;;5102434;28;20044;-77
2023/02/17 10:00:58;;;;;;;29.95;15.50;;;10.70;99.90;;;;;;5103669;28;20035;-75
2023/02/17 10:03:41;;;;;;;26.20;14.90;;;10.90;99.90;;;;;;5103611;28;20035;-77
2023/02/17 10:06:23;;;;;;;24.92;14.63;;;10.80;99.90;;;;;;5103616;28;20038;-75
2023/02/17 10:08:58;;;;;;;28.00;14.40;;;10.80;99.90;;;;;;5105298;28;20039;-77
2023/02/17 10:11:33;;;;;;;25.45;13.13;;;10.90;99.90;;;;;;5113524;28;20048;-77
2023/02/17 10:14:04;;;;;;;25.20;13.80;;;10.80;99.90;;;;;;5114513;28;20355;-77
2023/02/17 10:16:39;;;;;;;26.63;13.25;;;10.90;99.90;;;;;;5105304;28;20046;-77
2023/02/17 10:19:46;;;;;;;24.70;13.82;;;10.90;99.90;;;;;;5094259;28;20036;-77
2023/02/17 10:22:21;;;;;;;35.35;13.82;;;10.90;99.90;;;;;;5081733;28;20062;-78
2023/02/17 10:24:46;;;;;;;36.53;13.90;;;10.90;99.90;;;;;;5097510;28;20040;-77
2023/02/17 10:27:21;;;;;;;25.63;13.18;;;10.90;99.90;;;;;;5094143;28;20403;-78
2023/02/17 10:30:30;;;;;;;22.25;13.18;;;10.80;99.90;;;;;;5093001;28;20450;-77
2023/02/17 10:33:02;;;;;;;25.92;12.43;;;10.90;99.90;;;;;;5071712;28;20097;-77
2023/02/17 10:35:51;;;;;;;22.23;12.50;;;10.90;99.90;;;;;;5095315;28;20098;-77
2023/02/17 10:38:41;;;;;;;24.60;13.90;;;11.00;99.90;;;;;;5093747;28;20083;-77
2023/02/17 10:41:12;;;;;;;27.75;13.18;;;11.00;99.90;;;;;;5093701;28;20036;-77
2023/02/17 10:43:38;;;;;;;24.60;13.18;;;11.00;99.90;;;;;;5092147;28;20379;-77
2023/02/17 10:46:06;;;;;;;23.83;11.70;;;10.90;99.90;;;;;;5092149;28;20047;-77
2023/02/17 10:48:39;;;;;;;23.95;12.18;;;11.00;99.90;;;;;;5092186;28;20040;-77
2023/02/17 10:51:06;;;;;;;24.02;11.18;;;11.00;99.90;;;;;;5093157;28;20385;-76
2023/02/17 10:53:36;;;;;;;19.40;10.70;;;11.10;99.90;;;;;;5093197;28;20036;-77
2023/02/17 10:56:13;;;;;;;21.38;10.70;;;11.10;99.90;;;;;;5091926;28;20047;-77
2023/02/17 10:58:59;;;;;;;22.55;10.80;;;11.00;99.90;;;;;;5093535;28;20396;-77
2023/02/17 11:01:26;;;;;;;20.35;10.70;;;11.00;99.90;;;;;;5074856;28;20032;-77
2023/02/17 11:04:05;;;;;;;19.83;11.55;;;11.10;99.90;;;;;;5091703;28;20040;-78
2023/02/17 11:06:35;;;;;;;26.33;9.98;;;11.20;99.90;;;;;;5092032;28;20395;-77
2023/02/17 11:09:15;;;;;;;19.42;9.30;;;11.00;99.90;;;;;;5091861;28;20043;-77
2023/02/17 11:11:49;;;;;;;23.98;9.48;;;11.20;99.90;;;;;;5093075;28;20067;-78
2023/02/17 11:14:29;;;;;;;25.40;9.13;;;11.10;99.90;;;;;;5092844;28;20150;-78
2023/02/17 11:17:11;;;;;;;20.50;9.77;;;11.10;99.90;;;;;;5092628;28;20040;-76
2023/02/17 11:19:37;;;;;;;16.88;8.80;;;11.10;99.90;;;;;;5077671;28;20051;-76
2023/02/17 11:22:05;;;;;;;20.08;9.20;;;11.10;99.90;;;;;;5117218;22;20043;-76
2023/02/17 11:24:33;;;;;;;18.33;8.15;;;11.20;99.90;;;;;;5105465;28;20324;-75
2023/02/17 11:26:58;;;;;;;18.02;8.63;;;11.30;99.90;;;;;;5096323;28;20093;-76
2023/02/17 11:29:25;;;;;;;18.38;7.47;;;11.20;99.90;;;;;;5093153;28;20039;-75
2023/02/17 11:31:53;;;;;;;16.73;7.03;;;11.10;99.90;;;;;;5087990;28;20044;-76
2023/02/17 11:34:22;;;;;;;20.48;7.07;;;11.10;99.90;;;;;;5089188;28;20501;-76
2023/02/17 11:36:58;;;;;;;12.88;7.35;;;11.20;99.90;;;;;;5093219;28;20137;-76
2023/02/17 11:39:24;;;;;;;15.75;7.00;;;11.10;99.90;;;;;;5093462;28;20050;-76
2023/02/17 11:41:49;;;;;;;15.48;6.90;;;11.30;99.90;;;;;;5091751;28;20126;-75
2023/02/17 11:44:23;;;;;;;16.55;6.70;;;11.40;99.90;;;;;;5092668;28;20165;-75
2023/02/17 11:47:08;;;;;;;15.15;6.28;;;11.30;99.90;;;;;;5093323;28;20060;-74
2023/02/17 11:50:19;;;;;;;13.18;5.88;;;11.30;99.90;;;;;;5092815;28;20093;-75
2023/02/17 11:52:56;;;;;;;12.25;5.55;;;11.30;99.90;;;;;;5092531;28;20433;-75
2023/02/17 11:55:33;;;;;;;10.50;5.03;;;11.50;99.90;;;;;;5092956;28;20491;-75
2023/02/17 11:58:01;;;;;;;11.57;5.13;;;11.60;99.90;;;;;;5091709;28;20423;-75
2023/02/17 12:00:50;;;;;;;15.05;5.10;;;11.60;99.90;;;;;;5092816;28;20036;-75
2023/02/17 12:03:50;;;;;;;13.95;3.97;;;11.70;99.90;;;;;;5092333;28;20042;-75
2023/02/17 12:06:47;;;;;;;13.65;4.70;;;11.60;99.90;;;;;;5092688;28;20449;-75
2023/02/17 12:09:33;;;;;;;14.50;4.20;;;11.60;99.90;;;;;;5092664;28;20048;-75
2023/02/17 12:12:27;;;;;;;13.48;3.70;;;11.70;99.90;;;;;;5092699;28;20048;-75
2023/02/17 12:15:20;;;;;;;12.07;4.03;;;11.80;99.90;;;;;;5092376;28;20051;-74
2023/02/17 12:18:07;;;;;;;11.82;3.17;;;11.90;99.90;;;;;;5092341;28;20115;-73
2023/02/17 12:20:54;;;;;;;11.73;4.00;;;11.90;99.90;;;;;;5092113;28;20032;-73
2023/02/17 12:23:44;;;;;;;11.55;3.13;;;12.00;99.90;;;;;;5091931;28;20042;-73
2023/02/17 12:26:16;;;;;;;9.18;3.00;;;12.00;99.90;;;;;;5090825;28;20127;-73
2023/02/17 12:28:50;;;;;;;10.90;3.28;;;12.10;99.90;;;;;;5091228;28;20039;-72
2023/02/17 12:31:56;;;;;;;8.98;2.80;;;12.10;99.90;;;;;;5090917;28;20414;-73
2023/02/17 12:34:39;;;;;;;10.07;2.90;;;12.10;99.90;;;;;;4993120;28;20041;-73
2023/02/17 12:37:13;;;;;;;11.27;2.80;;;12.20;99.90;;;;;;5081505;28;20048;-73
2023/02/17 12:39:41;;;;;;;;;;;12.00;99.90;;;;;;5092673;28;20043;-73
2023/02/17 12:42:16;;;;;;;9.85;3.10;;;12.10;99.90;;;;;;5090847;28;19920;-74
2023/02/17 12:44:52;;;;;;;6.82;2.33;;;12.20;99.90;;;;;;5091838;28;20040;-74
2023/02/17 12:47:53;;;;;;;6.53;2.35;;;12.10;99.90;;;;;;5090944;28;20127;-74
2023/02/17 12:50:22;;;;;;;9.55;3.10;;;12.10;99.90;;;;;;5090707;28;20040;-73
2023/02/17 12:52:52;;;;;;;9.32;3.05;;;12.20;99.90;;;;;;5090495;28;20051;-73
2023/02/17 12:55:26;;;;;;;10.60;3.17;;;12.00;99.90;;;;;;5090517;28;20036;-73